createdAt,value
2022-12-08T00:01:50.402Z,12.80
2022-12-08T00:07:11.898Z,12.80
2022-12-08T00:12:16.796Z,12.80
2022-12-08T00:17:21.594Z,12.80
2022-12-08T00:22:25.637Z,12.80
2022-12-08T00:27:28.968Z,12.80
2022-12-08T00:32:33.763Z,12.80
2022-12-08T00:37:37.150Z,12.80
2022-12-08T00:42:40.521Z,12.80
2022-12-08T00:47:45.425Z,12.80
2022-12-08T00:52:48.895Z,12.90
2022-12-08T00:57:52.184Z,12.90
2022-12-08T01:02:57.074Z,12.90
2022-12-08T01:08:00.452Z,12.90
2022-12-08T01:13:03.840Z,12.90
2022-12-08T01:18:08.642Z,12.90
2022-12-08T01:23:13.265Z,12.90
2022-12-08T01:28:16.928Z,12.90
2022-12-08T01:33:21.763Z,12.90
2022-12-08T01:38:25.238Z,12.90
2022-12-08T01:43:56.984Z,12.90
2022-12-08T01:49:06.627Z,12.90
2022-12-08T01:54:10.899Z,12.90
2022-12-08T01:59:14.929Z,12.90
2022-12-08T02:04:19.619Z,12.90
2022-12-08T02:09:23.355Z,12.90
2022-12-08T02:14:27.183Z,12.80
2022-12-08T02:20:06.682Z,12.90
2022-12-08T02:25:21.405Z,12.80
2022-12-08T02:30:27.438Z,12.80
2022-12-08T02:35:41.674Z,12.80
2022-12-08T02:40:53.583Z,12.80
2022-12-08T02:46:01.865Z,12.80
2022-12-08T02:51:07.044Z,12.80
2022-12-08T02:56:24.142Z,12.80
2022-12-08T03:01:45.585Z,12.80
2022-12-08T03:06:57.580Z,12.80
2022-12-08T03:12:07.808Z,12.80
2022-12-08T03:17:12.489Z,12.80
2022-12-08T03:22:21.903Z,12.80
2022-12-08T03:27:27.683Z,12.90
2022-12-08T03:32:36.267Z,12.90
2022-12-08T03:37:42.693Z,12.90
2022-12-08T03:42:46.217Z,12.90
2022-12-08T03:47:49.548Z,12.90
2022-12-08T03:52:54.243Z,12.90
2022-12-08T03:57:57.508Z,12.90
2022-12-08T04:03:00.899Z,12.90
2022-12-08T04:08:06.073Z,12.90
2022-12-08T04:13:09.418Z,12.90
2022-12-08T04:18:12.707Z,12.90
2022-12-08T04:23:17.527Z,12.90
2022-12-08T04:28:21.873Z,12.90
2022-12-08T04:33:25.293Z,12.90
2022-12-08T04:38:29.963Z,12.90
2022-12-08T04:43:33.258Z,12.90
2022-12-08T04:48:38.374Z,12.80
2022-12-08T04:53:46.479Z,12.80
2022-12-08T04:58:50.279Z,12.80
2022-12-08T05:03:53.761Z,12.80
2022-12-08T05:08:58.376Z,12.80
2022-12-08T05:14:01.713Z,12.80
2022-12-08T05:19:05.429Z,12.80
2022-12-08T05:24:10.325Z,12.80
2022-12-08T05:29:13.599Z,12.80
2022-12-08T05:34:18.230Z,12.80
2022-12-08T05:39:23.687Z,12.80
2022-12-08T05:44:30.265Z,12.80
2022-12-08T05:49:33.687Z,12.80
2022-12-08T05:54:38.584Z,12.80
2022-12-08T05:59:41.841Z,12.80
2022-12-08T06:04:45.170Z,12.70
2022-12-08T06:09:49.860Z,12.70
2022-12-08T06:14:53.185Z,12.70
2022-12-08T06:19:56.550Z,12.70
2022-12-08T06:25:03.273Z,12.70
2022-12-08T06:30:10.232Z,12.70
2022-12-08T06:35:13.691Z,12.70
2022-12-08T06:40:18.508Z,12.70
2022-12-08T06:45:21.759Z,12.70
2022-12-08T06:50:25.827Z,12.70
2022-12-08T07:00:54.029Z,12.70
2022-12-08T07:06:03.510Z,12.70
2022-12-08T07:11:18.085Z,12.70
2022-12-08T07:16:23.214Z,12.70
2022-12-08T07:21:26.496Z,12.70
2022-12-08T07:26:31.234Z,12.70
2022-12-08T07:31:34.630Z,12.70
2022-12-08T07:36:37.969Z,12.70
2022-12-08T07:41:42.666Z,12.70
2022-12-08T07:46:46.084Z,12.70
2022-12-08T07:51:50.463Z,12.70
2022-12-08T07:56:55.207Z,12.80
2022-12-08T08:02:21.332Z,12.70
2022-12-08T08:07:21.866Z,12.80
2022-12-08T08:12:31.726Z,12.80
2022-12-08T08:17:36.522Z,12.80
2022-12-08T08:22:40.037Z,12.90
2022-12-08T08:27:45.147Z,12.90
2022-12-08T08:32:48.530Z,12.90
2022-12-08T08:37:51.996Z,13.00
2022-12-08T08:42:56.651Z,13.00
2022-12-08T08:48:00.088Z,13.10
2022-12-08T08:53:03.330Z,13.40
2022-12-08T08:58:07.991Z,14.00
2022-12-08T09:03:11.506Z,14.50
2022-12-08T09:08:14.899Z,14.90
2022-12-08T09:13:19.586Z,15.10
2022-12-08T09:18:22.924Z,15.20
2022-12-08T09:23:29.432Z,15.20
2022-12-08T09:28:38.768Z,15.10
2022-12-08T09:33:42.610Z,15.10
2022-12-08T09:38:46.722Z,15.00
2022-12-08T09:44:04.287Z,14.90
2022-12-08T09:49:14.149Z,14.80
2022-12-08T09:54:20.901Z,14.70
2022-12-08T09:59:31.725Z,14.60
2022-12-08T10:04:37.665Z,14.50
2022-12-08T10:09:47.666Z,14.50
2022-12-08T10:15:08.227Z,14.40
2022-12-08T10:20:16.574Z,14.40
2022-12-08T10:25:22.201Z,14.30
2022-12-08T10:30:26.953Z,14.30
2022-12-08T10:35:45.537Z,14.30
2022-12-08T10:40:51.746Z,14.20
2022-12-08T10:45:56.555Z,14.30
2022-12-08T10:51:03.206Z,14.40
2022-12-08T10:56:16.674Z,14.50
2022-12-08T11:01:25.512Z,14.50
2022-12-08T11:06:36.034Z,14.60
2022-12-08T11:11:45.596Z,14.60
2022-12-08T11:16:51.053Z,14.60
2022-12-08T11:21:54.451Z,14.60
2022-12-08T11:27:02.509Z,14.60
2022-12-08T11:32:12.869Z,14.60
2022-12-08T11:37:23.793Z,14.60
2022-12-08T11:42:33.595Z,14.60
2022-12-08T11:47:44.936Z,14.60
2022-12-08T11:52:51.142Z,14.60
2022-12-08T11:57:58.434Z,14.60
2022-12-08T12:03:08.524Z,14.70
2022-12-08T12:08:29.497Z,14.70
2022-12-08T12:13:53.876Z,14.70
2022-12-08T12:19:02.641Z,14.60
2022-12-08T12:24:09.021Z,14.70
2022-12-08T12:29:17.510Z,14.70
2022-12-08T12:34:25.269Z,14.70
2022-12-08T12:39:30.820Z,14.70
2022-12-08T12:44:43.338Z,14.70
2022-12-08T12:50:08.011Z,14.70
2022-12-08T12:55:42.537Z,14.60
2022-12-08T13:00:45.874Z,14.60
2022-12-08T13:05:53.881Z,14.50
2022-12-08T13:11:03.174Z,14.50
2022-12-08T13:16:20.335Z,14.50
2022-12-08T13:21:35.870Z,14.40
2022-12-08T13:26:48.556Z,14.40
2022-12-08T13:31:54.621Z,14.40
2022-12-08T13:37:26.841Z,14.30
2022-12-08T13:42:38.205Z,14.30
2022-12-08T13:48:20.483Z,14.30
2022-12-08T13:58:41.777Z,14.20
2022-12-08T14:04:22.081Z,14.10
2022-12-08T14:09:21.577Z,14.10
2022-12-08T14:15:00.732Z,14.10
2022-12-08T14:19:58.620Z,14.00
2022-12-08T14:25:04.188Z,14.00
2022-12-08T14:30:10.178Z,13.90
2022-12-08T14:35:21.332Z,13.90
2022-12-08T14:40:32.764Z,13.80
2022-12-08T14:45:47.057Z,13.80
2022-12-08T14:51:05.448Z,13.70
2022-12-08T14:56:18.827Z,13.70
2022-12-08T15:01:24.776Z,13.70
2022-12-08T15:06:28.246Z,13.70
2022-12-08T15:11:37.465Z,13.70
2022-12-08T15:16:44.267Z,13.70
2022-12-08T15:21:48.372Z,13.70
2022-12-08T15:26:53.660Z,13.70
2022-12-08T15:31:59.298Z,13.70
2022-12-08T15:37:02.623Z,13.70
2022-12-08T15:42:14.436Z,13.70
2022-12-08T15:47:20.234Z,13.70
2022-12-08T15:52:24.970Z,13.70
2022-12-08T16:08:45.808Z,13.70
2022-12-08T16:14:03.478Z,13.70
2022-12-08T16:19:17.594Z,13.60
2022-12-08T16:24:20.993Z,13.60
2022-12-08T16:29:25.998Z,13.60
2022-12-08T16:34:29.917Z,13.60
2022-12-08T16:39:34.232Z,13.60
2022-12-08T16:44:42.458Z,13.50
2022-12-08T16:49:45.833Z,13.50
2022-12-08T16:54:49.302Z,13.50
2022-12-08T16:59:54.307Z,13.50
2022-12-08T17:04:58.379Z,13.50
2022-12-08T17:10:04.932Z,13.50
2022-12-08T17:15:12.594Z,13.50
2022-12-08T17:20:19.311Z,13.50
2022-12-08T17:25:23.266Z,13.50
2022-12-08T17:30:28.189Z,13.50
2022-12-08T17:35:32.389Z,13.50
2022-12-08T17:40:36.350Z,13.50
2022-12-08T17:45:43.812Z,13.50
2022-12-08T17:50:48.217Z,13.50
2022-12-08T17:55:57.996Z,13.50
2022-12-08T18:01:13.661Z,13.50
2022-12-08T18:06:19.159Z,13.50
2022-12-08T18:11:23.521Z,13.50
2022-12-08T18:16:30.933Z,13.50
2022-12-08T18:21:36.674Z,13.50
2022-12-08T18:26:42.352Z,13.40
2022-12-08T18:31:50.565Z,13.40
2022-12-08T18:36:55.064Z,13.40
2022-12-08T18:42:01.686Z,13.40
2022-12-08T18:47:07.322Z,13.40
2022-12-08T18:52:12.660Z,13.30
2022-12-08T18:57:18.297Z,13.40
2022-12-08T19:02:25.193Z,13.40
2022-12-08T19:07:31.915Z,13.40
2022-12-08T19:12:37.734Z,13.40
2022-12-08T19:17:43.784Z,13.50
2022-12-08T19:22:48.345Z,13.50
2022-12-08T19:27:53.242Z,13.50
2022-12-08T19:32:59.689Z,13.50
2022-12-08T19:38:06.044Z,13.50
2022-12-08T19:43:47.380Z,13.50
2022-12-08T19:48:56.038Z,13.40
2022-12-08T19:54:02.445Z,13.40
2022-12-08T19:59:15.826Z,13.40
2022-12-08T20:04:29.736Z,13.40
2022-12-08T20:09:36.924Z,13.50
2022-12-08T20:14:45.863Z,13.50
2022-12-08T20:19:55.463Z,13.50
2022-12-08T20:25:03.690Z,13.50
2022-12-08T20:30:16.692Z,13.50
2022-12-08T20:35:24.216Z,13.50
2022-12-08T20:40:28.599Z,13.40
2022-12-08T20:45:34.560Z,13.40
2022-12-08T20:50:42.310Z,13.40
2022-12-08T20:55:48.428Z,13.40
2022-12-08T21:00:53.229Z,13.40
2022-12-08T21:05:58.780Z,13.40
2022-12-08T21:11:03.215Z,13.40
2022-12-08T21:16:09.331Z,13.40
2022-12-08T21:21:17.793Z,13.30
2022-12-08T21:26:23.372Z,13.30
2022-12-08T21:31:29.216Z,13.30
2022-12-08T21:36:34.470Z,13.30
2022-12-08T21:41:55.053Z,13.30
2022-12-08T21:46:58.524Z,13.30
2022-12-08T21:52:03.353Z,13.30
2022-12-08T21:57:06.830Z,13.30
2022-12-08T22:02:15.651Z,13.30
2022-12-08T22:07:24.423Z,13.30
2022-12-08T22:12:28.134Z,13.30
2022-12-08T22:17:31.524Z,13.30
2022-12-08T22:22:37.012Z,13.30
2022-12-08T22:27:40.658Z,13.40
2022-12-08T22:32:44.121Z,13.40
2022-12-08T22:37:50.797Z,13.30
2022-12-08T22:42:54.235Z,13.30
2022-12-08T22:47:57.621Z,13.30
2022-12-08T22:53:02.428Z,13.30
2022-12-08T22:58:05.892Z,13.30
2022-12-08T23:03:09.421Z,13.30
2022-12-08T23:08:17.813Z,13.30
2022-12-08T23:13:22.003Z,13.30
2022-12-08T23:18:25.555Z,13.20
2022-12-08T23:23:30.324Z,13.20
2022-12-08T23:28:33.578Z,13.20
2022-12-08T23:33:37.105Z,13.10
2022-12-08T23:38:42.086Z,13.10
2022-12-08T23:43:46.997Z,13.10
2022-12-08T23:48:50.700Z,13.10
2022-12-08T23:53:55.337Z,13.00
2022-12-08T23:58:58.913Z,13.00
